Time;durP1;ratioP1;P1;durP2;ratioP2;P2;SDS_P1;SDS_P2;PMS_P1;PMS_P2;Temp;Humidity;BMP_temperature;BMP_pressure;BME280_temperature;BME280_humidity;BME280_pressure;Samples;Min_cycle;Max_cycle;Signal;HPM_P1;HPM_P2
2023/01/07 00:01:34;;;;;;;4.30;2.45;;;;;;;3.09;71.89;101671.46;1877526;76;21092;-48
2023/01/07 00:04:05;;;;;;;3.00;1.85;;;;;;;3.06;71.93;101683.17;1879401;75;21094;-48
2023/01/07 00:06:37;;;;;;;2.70;1.72;;;;;;;3.08;71.90;101690.96;1890869;75;21026;-55
2023/01/07 00:09:08;;;;;;;3.75;2.00;;;;;;;3.05;71.86;101691.83;1909874;75;21081;-54
2023/01/07 00:11:38;;;;;;;5.58;1.05;;;;;;;2.99;71.66;101693.09;1909799;75;21077;-54
2023/01/07 00:14:09;;;;;;;2.92;1.77;;;;;;;2.93;71.80;101689.12;1886751;75;21021;-51
2023/01/07 00:16:39;;;;;;;1.27;0.82;;;;;;;2.89;71.76;101698.63;1878233;75;21100;-46
2023/01/07 00:19:09;;;;;;;7.05;1.70;;;;;;;2.88;71.54;101707.31;1879611;75;21520;-47
2023/01/07 00:21:38;;;;;;;4.67;1.92;;;;;;;2.82;71.87;101703.38;1889554;75;21115;-46
2023/01/07 00:24:09;;;;;;;8.10;2.80;;;;;;;2.88;71.84;101709.91;1845138;78;21022;-46
2023/01/07 00:26:38;;;;;;;6.08;2.15;;;;;;;2.90;71.92;101711.23;1859833;76;21532;-47
2023/01/07 00:29:08;;;;;;;5.53;2.02;;;;;;;2.90;72.12;101714.70;1895367;75;21132;-47
2023/01/07 00:31:39;;;;;;;4.25;2.30;;;;;;;2.91;72.12;101718.16;1885504;75;21066;-48
2023/01/07 00:34:08;;;;;;;4.53;1.85;;;;;;;2.83;72.08;101730.25;1893706;75;21480;-49
2023/01/07 00:36:42;;;;;;;2.33;1.07;;;;;;;2.76;72.16;101744.05;1908712;75;21108;-49
2023/01/07 00:39:20;;;;;;;2.45;1.95;;;;;;;2.72;72.28;101739.69;1908083;75;21163;-48
2023/01/07 00:44:36;;;;;;;4.53;2.05;;;;;;;2.57;72.31;101745.61;1896415;75;21022;-48
2023/01/07 00:47:05;;;;;;;3.92;1.92;;;;;;;2.44;72.22;101743.31;1906726;75;21539;-48
2023/01/07 00:49:33;;;;;;;3.25;1.25;;;;;;;2.38;72.31;101754.92;1908796;75;21026;-47
2023/01/07 00:52:02;;;;;;;4.95;2.30;;;;;;;2.33;72.38;101753.58;1908784;75;21104;-50
2023/01/07 00:54:31;;;;;;;4.85;1.62;;;;;;;2.33;72.17;101749.69;1908809;75;21092;-49
2023/01/07 00:56:59;;;;;;;1.65;1.27;;;;;;;2.35;72.09;101745.81;1896814;75;21198;-54
2023/01/07 00:59:28;;;;;;;3.50;1.95;;;;;;;2.33;72.04;101752.72;1876434;76;21179;-49
2023/01/07 01:01:57;;;;;;;5.20;2.00;;;;;;;2.27;71.99;101743.99;1889625;75;21100;-48
2023/01/07 01:04:26;;;;;;;3.33;2.30;;;;;;;2.23;71.98;101743.52;1908830;75;21585;-49
2023/01/07 01:06:54;;;;;;;2.75;1.37;;;;;;;2.22;71.89;101748.69;1908796;75;21066;-48
2023/01/07 01:09:25;;;;;;;4.62;1.75;;;;;;;2.22;71.95;101762.55;1908689;75;21046;-47
2023/01/07 01:11:53;;;;;;;2.42;1.10;;;;;;;2.17;71.84;101769.41;1908729;75;21026;-48
2023/01/07 01:14:22;;;;;;;3.95;1.90;;;;;;;2.11;71.80;101769.34;1908819;75;21174;-48
2023/01/07 01:16:51;;;;;;;2.52;1.60;;;;;;;2.01;71.83;101770.08;1908818;75;21015;-48
2023/01/07 01:19:19;;;;;;;2.47;1.92;;;;;;;1.96;71.95;101777.82;1908852;75;21097;-47
2023/01/07 01:21:48;;;;;;;3.35;2.10;;;;;;;1.93;71.73;101768.25;1881358;75;21183;-47
2023/01/07 01:24:17;;;;;;;2.58;1.70;;;;;;;1.87;71.80;101772.07;1895425;74;21230;-48
2023/01/07 01:26:45;;;;;;;4.00;1.80;;;;;;;1.83;72.02;101783.28;1908789;75;21058;-47
2023/01/07 01:29:14;;;;;;;4.95;3.12;;;;;;;1.81;72.04;101782.79;1908828;75;21129;-47
2023/01/07 01:31:43;;;;;;;5.92;2.00;;;;;;;1.87;71.98;101785.06;1908794;75;21034;-52
2023/01/07 01:34:12;;;;;;;5.30;2.40;;;;;;;1.90;71.67;101782.91;1908689;75;21631;-49
2023/01/07 01:36:40;;;;;;;0.88;0.80;;;;;;;1.83;71.43;101788.47;1908759;75;21222;-48
2023/01/07 01:39:09;;;;;;;2.15;1.40;;;;;;;1.78;71.44;101792.72;1908847;75;21777;-48
2023/01/07 01:41:38;;;;;;;3.40;1.98;;;;;;;1.81;71.45;101808.76;1908797;75;21046;-48
2023/01/07 01:44:37;;;;;;;3.80;1.87;;;;;;;1.81;71.33;101813.95;1908691;75;21658;-48
2023/01/07 01:47:22;;;;;;;2.70;1.80;;;;;;;1.81;71.33;101817.45;1908905;75;21022;-49
2023/01/07 01:49:54;;;;;;;5.25;2.58;;;;;;;1.80;71.53;101816.98;1906798;74;21599;-51
2023/01/07 01:52:26;;;;;;;3.67;2.10;;;;;;;1.82;71.31;101813.12;1907911;74;21054;-50
2023/01/07 01:54:58;;;;;;;4.45;1.98;;;;;;;1.81;71.34;101813.95;1908611;75;21100;-52
2023/01/07 01:57:29;;;;;;;3.02;1.92;;;;;;;1.73;71.23;101812.15;1890354;75;21050;-51
2023/01/07 01:59:59;;;;;;;4.85;2.35;;;;;;;1.70;71.19;101819.88;1876505;76;21596;-53
2023/01/07 02:02:35;;;;;;;3.40;1.92;;;;;;;1.69;71.25;101831.53;1875838;75;21199;-52
2023/01/07 02:05:04;;;;;;;2.67;1.60;;;;;;;1.65;71.07;101833.65;1879840;75;21124;-57
2023/01/07 02:07:33;;;;;;;4.72;2.12;;;;;;;1.62;71.11;101840.08;1891147;75;21034;-50
2023/01/07 02:10:20;;;;;;;4.87;2.55;;;;;;;1.67;71.04;101846.22;1874502;76;21114;-51
2023/01/07 02:12:58;;;;;;;4.47;2.50;;;;;;;1.68;70.92;101857.07;1874596;76;21174;-54
2023/01/07 02:15:33;;;;;;;6.03;2.90;;;;;;;1.67;70.92;101863.09;1859957;76;21679;-49
2023/01/07 02:18:13;;;;;;;7.30;2.65;;;;;;;1.61;71.01;101861.28;1874526;76;21124;-48
2023/01/07 02:20:51;;;;;;;3.10;2.35;;;;;;;1.60;71.18;101862.55;1874094;76;21128;-51
2023/01/07 02:23:55;;;;;;;4.67;2.85;;;;;;;1.53;71.31;101857.27;1878577;73;21125;-49
2023/01/07 02:26:40;;;;;;;;;;;;;;;1.49;71.49;101857.18;1910902;75;21007;-54
2023/01/07 02:29:14;;;;;;;3.45;2.08;;;;;;;1.51;71.54;101859.38;1906036;75;20272;-55
2023/01/07 02:31:52;;;;;;;3.60;2.75;;;;;;;1.47;71.32;101862.34;1908186;75;21164;-55
2023/01/07 02:34:24;;;;;;;4.20;2.33;;;;;;;1.50;71.18;101862.84;1909113;75;21104;-47
2023/01/07 02:37:01;;;;;;;2.80;2.10;;;;;;;1.51;71.08;101865.86;1909165;75;21163;-47
2023/01/07 02:39:40;;;;;;;4.60;2.00;;;;;;;1.53;71.00;101867.66;1909777;75;21187;-47
2023/01/07 02:42:25;;;;;;;3.98;2.85;;;;;;;1.50;71.02;101873.22;1902996;75;21094;-48
2023/01/07 02:45:02;;;;;;;5.50;1.82;;;;;;;1.43;71.06;101878.72;1875800;75;21002;-50
2023/01/07 02:47:48;;;;;;;3.10;1.95;;;;;;;1.35;71.33;101879.89;1877364;76;21073;-47
2023/01/07 02:50:17;;;;;;;4.20;1.98;;;;;;;1.31;71.53;101883.29;1834476;76;21605;-47
2023/01/07 02:52:46;;;;;;;3.45;2.25;;;;;;;1.32;71.58;101878.53;1877363;76;21060;-47
2023/01/07 02:55:20;;;;;;;3.02;1.98;;;;;;;1.38;71.41;101880.36;1877383;76;21096;-50
2023/01/07 02:58:07;;;;;;;5.12;2.08;;;;;;;1.42;71.17;101874.39;1900490;75;21037;-45
2023/01/07 03:01:03;;;;;;;3.37;1.82;;;;;;;1.43;70.90;101882.61;1896812;74;21026;-46
2023/01/07 03:03:35;;;;;;;4.08;1.92;;;;;;;1.46;70.73;101887.00;1909643;75;21504;-46
2023/01/07 03:06:28;;;;;;;2.77;1.20;;;;;;;1.44;70.43;101885.67;1882560;75;21084;-48
2023/01/07 03:08:59;;;;;;;2.55;1.42;;;;;;;1.42;70.27;101879.59;1877650;76;21115;-48
2023/01/07 03:11:32;;;;;;;3.52;1.45;;;;;;;1.38;70.02;101882.09;1877716;76;21096;-48
2023/01/07 03:14:07;;;;;;;2.00;1.50;;;;;;;1.29;70.12;101894.47;1877341;76;21527;-49
2023/01/07 03:16:42;;;;;;;3.47;1.62;;;;;;;1.26;70.14;101904.81;1876998;76;21187;-47
2023/01/07 03:19:17;;;;;;;3.12;1.47;;;;;;;1.26;70.37;101902.22;1876309;76;21400;-49
2023/01/07 03:21:48;;;;;;;4.35;1.32;;;;;;;1.27;70.37;101901.36;1877148;76;21053;-48
2023/01/07 03:24:18;;;;;;;1.98;1.07;;;;;;;1.28;70.14;101910.47;1877334;76;21061;-47
2023/01/07 03:26:50;;;;;;;3.55;1.67;;;;;;;1.28;70.21;101914.80;1877431;76;21101;-47
2023/01/07 03:29:20;;;;;;;3.50;1.85;;;;;;;1.31;70.12;101916.12;1877378;76;21120;-46
2023/01/07 03:31:57;;;;;;;2.63;1.40;;;;;;;1.27;69.76;101910.44;1877460;76;21026;-47
2023/01/07 03:34:29;;;;;;;2.37;1.07;;;;;;;1.24;69.71;101909.11;1877293;76;21065;-47
2023/01/07 03:37:03;;;;;;;1.72;1.62;;;;;;;1.19;69.81;101919.81;1877372;76;21737;-49
2023/01/07 03:39:35;;;;;;;3.22;1.17;;;;;;;1.20;69.87;101931.92;1875545;74;21139;-49
2023/01/07 03:44:53;;;;;;;4.83;1.70;;;;;;;1.11;69.94;101941.30;1877379;76;21005;-47
2023/01/07 03:47:24;;;;;;;2.58;1.50;;;;;;;1.17;69.84;101949.62;1877418;76;21476;-47
2023/01/07 03:49:53;;;;;;;2.60;1.13;;;;;;;1.22;69.66;101953.19;1877163;76;21559;-48
2023/01/07 03:52:22;;;;;;;4.08;1.15;;;;;;;1.21;69.65;101961.80;1877379;76;21077;-48
2023/01/07 03:54:51;;;;;;;4.65;1.25;;;;;;;1.20;69.60;101973.44;1877300;76;21081;-49
2023/01/07 03:57:20;;;;;;;5.42;2.12;;;;;;;1.20;69.47;101976.94;1893977;75;21533;-48
2023/01/07 03:59:49;;;;;;;5.25;2.17;;;;;;;1.15;69.55;101983.31;1909622;75;21065;-48
2023/01/07 04:02:17;;;;;;;2.83;1.22;;;;;;;1.16;69.55;101985.48;1909559;75;21003;-48
2023/01/07 04:04:46;;;;;;;1.98;1.15;;;;;;;1.08;69.29;101991.81;1909558;75;21194;-50
2023/01/07 04:07:16;;;;;;;4.95;1.62;;;;;;;1.07;69.48;101986.59;1909767;75;21583;-49
2023/01/07 04:09:46;;;;;;;4.30;1.60;;;;;;;1.03;69.55;101993.86;1909643;75;21473;-47
2023/01/07 04:12:15;;;;;;;4.15;1.20;;;;;;;1.02;69.68;101993.43;1909652;75;21126;-48
2023/01/07 04:14:43;;;;;;;4.92;1.85;;;;;;;1.03;69.46;101998.62;1909718;75;21121;-47
2023/01/07 04:17:13;;;;;;;3.98;1.52;;;;;;;1.04;69.41;101990.01;1909655;75;21050;-47
2023/01/07 04:19:42;;;;;;;2.33;1.40;;;;;;;1.05;69.35;101999.55;1909666;75;21054;-49
2023/01/07 04:22:11;;;;;;;2.25;1.17;;;;;;;0.95;69.32;101991.98;1909692;75;21097;-47
2023/01/07 04:24:40;;;;;;;2.42;1.25;;;;;;;0.89;69.29;101996.19;1909610;75;21497;-48
2023/01/07 04:27:09;;;;;;;5.50;1.67;;;;;;;0.82;69.19;101999.49;1909600;75;21097;-49
2023/01/07 04:29:37;;;;;;;2.60;1.10;;;;;;;0.67;68.80;102003.50;1909619;75;21054;-48
2023/01/07 04:32:06;;;;;;;3.50;1.40;;;;;;;0.61;68.73;102008.95;1908352;75;21138;-48
2023/01/07 04:34:35;;;;;;;2.77;1.12;;;;;;;0.56;68.64;102015.34;1908245;75;21554;-48
2023/01/07 04:37:04;;;;;;;2.85;1.27;;;;;;;0.51;68.62;102028.61;1908236;75;21490;-48
2023/01/07 04:39:33;;;;;;;2.90;1.45;;;;;;;0.43;68.60;102027.58;1908236;75;21505;-48
2023/01/07 04:42:02;;;;;;;4.00;1.20;;;;;;;0.33;68.50;102035.13;1908158;75;21054;-47
2023/01/07 04:44:30;;;;;;;6.72;1.87;;;;;;;0.27;68.68;102032.38;1908209;75;21093;-48
2023/01/07 04:46:59;;;;;;;3.12;1.10;;;;;;;0.25;68.60;102026.71;1908198;75;21018;-48
2023/01/07 04:49:28;;;;;;;1.52;1.25;;;;;;;0.22;67.87;102033.97;1908344;75;21019;-48
2023/01/07 04:51:58;;;;;;;3.25;1.25;;;;;;;0.25;67.77;102042.25;1908174;74;21007;-48
2023/01/07 04:54:27;;;;;;;0.90;0.60;;;;;;;0.20;68.02;102031.77;1907331;75;21552;-47
2023/01/07 04:56:56;;;;;;;5.90;1.40;;;;;;;0.17;67.86;102027.83;1896479;75;21042;-46
2023/01/07 04:59:25;;;;;;;2.80;1.27;;;;;;;0.21;68.08;102034.83;1909921;75;21537;-46
2023/01/07 05:01:54;;;;;;;4.72;1.10;;;;;;;0.19;67.60;102039.09;1909851;75;21104;-46
2023/01/07 05:04:23;;;;;;;2.58;0.98;;;;;;;0.16;68.01;102044.19;1909752;75;21399;-48
2023/01/07 05:06:52;;;;;;;10.05;1.42;;;;;;;0.20;68.17;102046.02;1910069;75;21410;-46
2023/01/07 05:09:22;;;;;;;1.60;0.98;;;;;;;0.24;68.06;102041.39;1909764;75;21081;-45
2023/01/07 05:11:51;;;;;;;3.12;0.75;;;;;;;0.28;67.97;102059.18;1909785;75;21592;-47
2023/01/07 05:14:20;;;;;;;2.10;1.15;;;;;;;0.20;67.76;102053.78;1909781;75;21101;-46
2023/01/07 05:16:50;;;;;;;3.17;1.37;;;;;;;0.21;67.85;102059.44;1909625;75;21070;-48
2023/01/07 05:19:20;;;;;;;3.95;1.10;;;;;;;0.25;67.89;102058.66;1909786;75;21534;-48
2023/01/07 05:21:49;;;;;;;5.30;1.55;;;;;;;0.31;67.86;102054.92;1909769;75;21014;-49
2023/01/07 05:24:18;;;;;;;1.85;0.80;;;;;;;0.35;67.77;102063.25;1909745;75;21090;-48
2023/01/07 05:26:47;;;;;;;3.35;1.60;;;;;;;0.38;67.57;102060.70;1909930;74;21125;-48
2023/01/07 05:29:17;;;;;;;1.95;0.80;;;;;;;0.40;67.57;102066.36;1909848;75;21121;-47
2023/01/07 05:31:46;;;;;;;4.45;1.35;;;;;;;0.43;67.42;102072.92;1909761;75;21058;-47
2023/01/07 05:34:16;;;;;;;6.50;1.42;;;;;;;0.36;67.48;102088.30;1909651;75;21082;-47
2023/01/07 05:36:45;;;;;;;9.25;1.90;;;;;;;0.27;67.72;102091.95;1909892;75;21465;-48
2023/01/07 05:39:14;;;;;;;10.85;2.20;;;;;;;0.17;67.84;102099.92;1909798;75;21133;-47
2023/01/07 05:41:43;;;;;;;4.80;1.82;;;;;;;0.01;68.02;102107.27;1909712;75;21191;-47
2023/01/07 05:44:12;;;;;;;6.92;2.33;;;;;;;0.01;68.39;102111.15;1909777;75;21103;-49
2023/01/07 05:46:41;;;;;;;7.70;2.27;;;;;;;-0.03;68.55;102112.36;1909667;75;21136;-47
2023/01/07 05:49:10;;;;;;;5.15;2.00;;;;;;;-0.01;68.66;102113.27;1909748;75;21039;-49
2023/01/07 05:51:38;;;;;;;7.10;2.37;;;;;;;-0.01;68.68;102115.86;1909802;75;21620;-48
2023/01/07 05:54:07;;;;;;;3.15;1.77;;;;;;;0.01;68.59;102115.91;1909759;75;21003;-47
2023/01/07 05:56:36;;;;;;;4.85;2.42;;;;;;;-0.02;68.58;102118.01;1903171;75;21573;-48
2023/01/07 05:59:05;;;;;;;3.27;1.40;;;;;;;-0.05;68.57;102124.39;1877248;76;21029;-49
2023/01/07 06:01:33;;;;;;;5.80;2.08;;;;;;;-0.11;68.41;102130.70;1877398;76;21137;-48
2023/01/07 06:04:02;;;;;;;4.85;2.08;;;;;;;-0.15;68.40;102140.49;1877404;76;21519;-49
2023/01/07 06:06:31;;;;;;;4.75;1.35;;;;;;;-0.20;68.63;102143.40;1877444;76;21088;-47
2023/01/07 06:08:59;;;;;;;9.55;2.30;;;;;;;-0.22;68.53;102143.78;1877225;75;21026;-48
2023/01/07 06:11:28;;;;;;;3.40;1.80;;;;;;;-0.29;68.89;102153.06;1877198;76;21092;-49
2023/01/07 06:13:57;;;;;;;4.58;2.12;;;;;;;-0.24;68.97;102159.66;1877310;76;21072;-49
2023/01/07 06:16:27;;;;;;;9.43;3.30;;;;;;;-0.22;68.81;102165.78;1877230;76;21092;-50
2023/01/07 06:18:55;;;;;;;4.50;2.45;;;;;;;-0.28;68.85;102165.59;1877353;76;21021;-49
2023/01/07 06:21:24;;;;;;;7.28;2.27;;;;;;;-0.31;69.02;102162.94;1877381;76;21190;-47
2023/01/07 06:23:53;;;;;;;6.15;2.67;;;;;;;-0.28;69.08;102166.88;1877530;76;20998;-47
2023/01/07 06:26:22;;;;;;;3.12;1.57;;;;;;;-0.22;69.06;102165.78;1880467;75;21092;-47
2023/01/07 06:28:52;;;;;;;1.95;1.30;;;;;;;-0.14;68.96;102174.62;1892439;76;21467;-49
2023/01/07 06:31:21;;;;;;;9.78;2.85;;;;;;;-0.08;68.73;102176.08;1892549;76;21021;-51
2023/01/07 06:33:49;;;;;;;6.45;2.62;;;;;;;-0.04;68.50;102177.95;1892440;76;21187;-48
2023/01/07 06:36:18;;;;;;;5.58;1.98;;;;;;;-0.04;67.94;102177.95;1892552;76;21460;-48
2023/01/07 06:38:47;;;;;;;6.60;2.60;;;;;;;-0.08;67.64;102187.73;1892456;76;21166;-47
2023/01/07 06:41:15;;;;;;;4.45;2.17;;;;;;;-0.09;68.11;102187.69;1892551;76;21021;-47
2023/01/07 06:43:44;;;;;;;4.55;1.85;;;;;;;-0.03;68.19;102190.04;1892478;76;21052;-47
2023/01/07 06:46:12;;;;;;;4.00;1.47;;;;;;;0.08;67.98;102202.42;1892515;76;21064;-49
2023/01/07 06:48:41;;;;;;;3.10;1.45;;;;;;;0.04;67.87;102207.94;1892484;76;21101;-50
2023/01/07 06:51:10;;;;;;;6.03;2.75;;;;;;;0.04;67.99;102210.91;1892384;76;21021;-49
2023/01/07 06:53:39;;;;;;;6.53;2.22;;;;;;;0.04;67.78;102208.33;1892421;76;20993;-50
2023/01/07 06:56:07;;;;;;;9.25;2.12;;;;;;;-0.01;67.39;102206.49;1893017;74;21091;-50
2023/01/07 06:58:36;;;;;;;5.40;2.17;;;;;;;-0.08;67.68;102212.76;1925642;74;21100;-48
2023/01/07 07:01:08;;;;;;;4.53;1.72;;;;;;;-0.05;67.94;102217.61;1924687;74;21605;-48
2023/01/07 07:03:37;;;;;;;4.62;1.60;;;;;;;0.05;67.76;102221.75;1895575;74;21400;-50
2023/01/07 07:06:07;;;;;;;7.55;1.60;;;;;;;0.16;67.48;102225.52;1894097;74;21625;-48
2023/01/07 07:08:36;;;;;;;5.90;2.80;;;;;;;0.16;67.09;102226.37;1898649;74;21016;-49
2023/01/07 07:11:05;;;;;;;2.00;1.32;;;;;;;0.15;66.42;102223.78;1925637;74;21069;-49
2023/01/07 07:13:33;;;;;;;7.08;1.95;;;;;;;0.12;66.35;102231.02;1925784;74;21006;-47
2023/01/07 07:16:02;;;;;;;4.62;1.60;;;;;;;0.21;66.72;102236.89;1925620;74;21117;-47
2023/01/07 07:18:31;;;;;;;6.90;2.12;;;;;;;0.34;66.38;102244.16;1925560;74;21103;-46
2023/01/07 07:20:59;;;;;;;3.27;1.47;;;;;;;0.43;66.36;102240.94;1925604;74;21053;-46
2023/01/07 07:23:28;;;;;;;3.05;1.52;;;;;;;0.57;66.16;102230.92;1925592;74;21014;-47
2023/01/07 07:25:56;;;;;;;3.12;1.72;;;;;;;0.68;66.02;102237.29;1925644;74;21085;-47
2023/01/07 07:28:25;;;;;;;5.65;2.00;;;;;;;0.76;65.84;102243.53;1925632;74;21046;-47
2023/01/07 07:30:54;;;;;;;18.17;2.22;;;;;;;0.69;65.22;102245.50;1925816;74;21162;-48
2023/01/07 07:33:22;;;;;;;7.87;2.02;;;;;;;0.71;65.63;102244.26;1925671;74;21034;-51
2023/01/07 07:35:51;;;;;;;7.90;1.98;;;;;;;0.76;65.66;102243.53;1925617;74;21077;-48
2023/01/07 07:38:20;;;;;;;9.68;2.72;;;;;;;0.82;65.29;102242.81;1925683;74;21091;-48
2023/01/07 07:40:49;;;;;;;8.00;2.35;;;;;;;0.74;65.56;102244.34;1925636;74;21109;-49
2023/01/07 07:43:17;;;;;;;5.53;2.60;;;;;;;0.68;65.71;102244.16;1925579;74;21006;-47
2023/01/07 07:45:46;;;;;;;7.08;3.33;;;;;;;0.55;65.70;102247.75;1925652;74;21056;-46
2023/01/07 07:48:15;;;;;;;8.60;3.72;;;;;;;0.36;65.97;102255.43;1925659;73;21011;-49
2023/01/07 07:50:44;;;;;;;8.20;2.70;;;;;;;0.18;66.19;102256.22;1925676;74;21604;-48
2023/01/07 07:53:14;;;;;;;7.20;2.62;;;;;;;0.04;66.29;102260.13;1925576;74;21146;-48
2023/01/07 07:55:42;;;;;;;12.98;3.58;;;;;;;-0.17;66.48;102259.97;1925606;74;21515;-50
2023/01/07 07:58:11;;;;;;;7.55;3.35;;;;;;;-0.29;66.71;102259.63;1896987;74;20977;-47
2023/01/07 08:00:40;;;;;;;7.47;3.42;;;;;;;-0.27;67.13;102262.70;1892377;76;21142;-47
2023/01/07 08:03:09;;;;;;;6.95;3.22;;;;;;;-0.16;67.09;102272.52;1892508;76;21025;-49
2023/01/07 08:05:43;;;;;;;6.83;3.15;;;;;;;-0.06;66.93;102268.92;1892479;76;21033;-47
2023/01/07 08:08:14;;;;;;;13.88;3.40;;;;;;;0.07;66.73;102277.05;1892322;73;21021;-48
2023/01/07 08:10:43;;;;;;;6.40;2.42;;;;;;;0.21;66.43;102277.04;1892552;76;21138;-47
2023/01/07 08:13:12;;;;;;;4.78;2.45;;;;;;;0.36;66.17;102288.25;1892510;76;21032;-48
2023/01/07 08:15:40;;;;;;;9.03;3.02;;;;;;;0.46;65.90;102289.38;1892705;76;21036;-50
2023/01/07 08:18:10;;;;;;;8.08;3.30;;;;;;;0.57;65.88;102286.66;1892562;76;21024;-51
2023/01/07 08:20:39;;;;;;;7.72;3.00;;;;;;;0.76;65.78;102295.39;1892545;76;21444;-51
2023/01/07 08:23:08;;;;;;;8.98;3.90;;;;;;;0.95;65.02;102288.09;1892795;76;21205;-49
2023/01/07 08:25:37;;;;;;;6.65;3.12;;;;;;;1.31;65.29;102284.63;1893391;76;21505;-46
2023/01/07 08:28:06;;;;;;;7.00;2.85;;;;;;;2.10;64.61;102285.56;1893269;76;21064;-46
2023/01/07 08:30:35;;;;;;;5.55;2.40;;;;;;;2.39;63.61;102286.98;1893374;76;21048;-46
2023/01/07 08:33:08;;;;;;;7.08;2.50;;;;;;;2.38;63.23;102298.21;1893392;76;21509;-47
2023/01/07 08:35:37;;;;;;;7.75;3.40;;;;;;;3.22;62.17;102291.92;1893612;76;21017;-47
2023/01/07 08:38:07;;;;;;;8.70;3.35;;;;;;;4.67;59.64;102295.56;1893508;76;21565;-46
2023/01/07 08:40:37;;;;;;;7.42;3.17;;;;;;;4.50;59.49;102283.25;1893480;76;21098;-48
2023/01/07 08:43:07;;;;;;;7.35;2.98;;;;;;;4.22;60.00;102287.25;1893478;76;21028;-47
2023/01/07 08:45:36;;;;;;;12.45;3.20;;;;;;;3.85;60.13;102282.88;1893416;76;21020;-47
2023/01/07 08:48:05;;;;;;;10.93;3.05;;;;;;;3.61;60.24;102290.78;1893313;76;21104;-47
2023/01/07 08:50:34;;;;;;;5.17;1.60;;;;;;;3.75;60.03;102293.60;1893442;76;21072;-49
2023/01/07 08:53:03;;;;;;;6.30;3.02;;;;;;;4.96;57.90;102290.63;1893364;76;21016;-51
2023/01/07 08:55:32;;;;;;;14.73;2.58;;;;;;;5.22;57.28;102286.53;1893636;76;21032;-49
2023/01/07 08:58:01;;;;;;;7.72;3.33;;;;;;;4.60;57.69;102286.38;1893526;76;21408;-48
2023/01/07 09:00:29;;;;;;;8.50;3.30;;;;;;;3.78;58.47;102288.45;1893286;76;21017;-48
2023/01/07 09:02:58;;;;;;;6.22;2.75;;;;;;;2.93;58.46;102287.97;1893436;76;21078;-46
2023/01/07 09:05:27;;;;;;;5.67;2.40;;;;;;;2.28;59.99;102281.13;1893480;76;21099;-51
2023/01/07 09:07:56;;;;;;;8.05;3.00;;;;;;;2.15;60.59;102290.83;1893410;76;21096;-50
2023/01/07 09:10:25;;;;;;;5.80;1.90;;;;;;;2.24;60.09;102283.22;1893599;76;21101;-49
2023/01/07 09:12:54;;;;;;;8.53;3.45;;;;;;;2.16;59.81;102287.41;1893511;76;20993;-50
2023/01/07 09:15:22;;;;;;;6.87;2.60;;;;;;;1.85;60.03;102297.14;1893393;76;21079;-48
2023/01/07 09:17:51;;;;;;;8.30;3.65;;;;;;;1.52;60.67;102295.53;1893415;76;21024;-48
2023/01/07 09:20:20;;;;;;;5.65;2.60;;;;;;;1.48;61.03;102296.30;1893322;76;21526;-51
2023/01/07 09:22:49;;;;;;;7.58;2.65;;;;;;;1.95;60.54;102298.64;1893483;76;21110;-47
2023/01/07 09:25:17;;;;;;;4.25;1.98;;;;;;;2.40;59.88;102296.52;1893315;76;21017;-49
2023/01/07 09:27:48;;;;;;;6.58;3.15;;;;;;;2.68;59.17;102305.75;1893403;76;21013;-48
2023/01/07 09:30:17;;;;;;;7.30;2.75;;;;;;;2.58;58.65;102299.47;1849931;76;21512;-51
2023/01/07 09:32:45;;;;;;;8.55;3.02;;;;;;;2.28;59.40;102306.26;1845861;78;21050;-50
2023/01/07 09:35:14;;;;;;;4.47;2.40;;;;;;;2.08;59.92;102304.11;1845738;78;21069;-51
2023/01/07 09:37:43;;;;;;;4.03;1.65;;;;;;;2.06;60.07;102308.41;1845832;78;21066;-51
2023/01/07 09:40:27;;;;;;;5.55;2.77;;;;;;;2.19;59.92;102314.73;1845703;78;21040;-49
2023/01/07 09:42:59;;;;;;;;;;;;;;;2.23;59.66;102310.08;1848664;78;21070;-51
2023/01/07 09:45:33;;;;;;;7.92;3.17;;;;;;;2.04;59.82;102311.83;1845398;76;20142;-50
2023/01/07 09:48:05;;;;;;;6.15;2.92;;;;;;;2.01;59.90;102299.66;1845821;78;21121;-47
2023/01/07 09:50:42;;;;;;;5.28;2.08;;;;;;;2.06;59.48;102297.14;1845608;78;21481;-53
2023/01/07 09:53:17;;;;;;;6.75;2.70;;;;;;;2.11;59.06;102295.09;1845656;78;21141;-52
2023/01/07 09:55:49;;;;;;;7.58;3.25;;;;;;;2.78;58.09;102292.47;1843518;76;21050;-51
2023/01/07 09:58:20;;;;;;;7.22;3.60;;;;;;;2.75;57.94;102289.41;1845912;78;21496;-49
2023/01/07 10:01:14;;;;;;;4.62;2.60;;;;;;;2.65;58.21;102299.17;1845711;78;21116;-51
2023/01/07 10:03:48;;;;;;;6.57;2.73;;;;;;;2.58;58.12;102296.00;1845134;78;21461;-53
2023/01/07 10:06:25;;;;;;;6.03;2.42;;;;;;;5.26;54.63;102290.04;1845677;77;21120;-53
2023/01/07 10:09:01;;;;;;;7.67;2.62;;;;;;;7.58;50.55;102284.66;1845235;76;21089;-53
2023/01/07 10:11:41;;;;;;;11.93;4.25;;;;;;;8.70;49.12;102282.02;1844928;77;21108;-50
2023/01/07 10:14:48;;;;;;;6.58;2.98;;;;;;;7.86;49.97;102281.97;1845697;78;21235;-51
2023/01/07 10:17:35;;;;;;;7.50;3.17;;;;;;;7.12;51.24;102290.81;1844753;78;21034;-51
2023/01/07 10:20:27;;;;;;;6.47;3.02;;;;;;;7.50;50.65;102291.65;1845684;78;21116;-51
2023/01/07 10:23:02;;;;;;;6.83;2.72;;;;;;;9.30;47.33;102284.66;1845833;78;21116;-47
2023/01/07 10:25:33;;;;;;;6.45;2.10;;;;;;;10.45;45.32;102283.35;1845786;78;21481;-47
2023/01/07 10:28:05;;;;;;;7.12;3.52;;;;;;;9.64;46.16;102275.52;1845273;77;21116;-52
2023/01/07 10:30:36;;;;;;;11.38;3.00;;;;;;;8.09;48.55;102279.25;1869689;76;21056;-49
2023/01/07 10:33:23;;;;;;;11.05;2.50;;;;;;;6.63;50.14;102279.41;1886979;75;21124;-49
2023/01/07 10:35:53;;;;;;;6.25;2.50;;;;;;;6.73;50.80;102282.05;1890737;75;21092;-49
2023/01/07 10:38:21;;;;;;;2.00;1.12;;;;;;;6.64;50.23;102282.03;1862247;75;21114;-49
2023/01/07 10:40:53;;;;;;;9.18;3.40;;;;;;;6.23;50.60;102281.91;1878153;76;21188;-49
2023/01/07 10:43:37;;;;;;;7.58;2.52;;;;;;;6.62;50.17;102289.42;1878255;76;21024;-47
2023/01/07 10:46:32;;;;;;;6.50;2.77;;;;;;;6.11;49.91;102286.66;1878174;76;21127;-47
2023/01/07 10:49:28;;;;;;;4.47;2.15;;;;;;;6.01;50.08;102290.95;1878284;76;21123;-46
2023/01/07 10:52:03;;;;;;;5.42;2.52;;;;;;;7.30;48.57;102279.46;1878231;76;21079;-46
2023/01/07 10:54:37;;;;;;;6.75;2.47;;;;;;;7.60;47.42;102284.64;1882825;74;21159;-47
2023/01/07 10:57:20;;;;;;;5.70;2.50;;;;;;;7.63;46.73;102290.75;1889873;75;21104;-46
2023/01/07 10:59:55;;;;;;;5.95;3.47;;;;;;;6.66;47.81;102295.09;1895440;75;21011;-47
2023/01/07 11:02:30;;;;;;;8.70;2.52;;;;;;;5.65;50.08;102306.86;1897275;75;21013;-46
2023/01/07 11:04:57;;;;;;;3.90;2.17;;;;;;;5.10;50.74;102309.05;1889751;75;21066;-49
2023/01/07 11:07:44;;;;;;;4.95;2.67;;;;;;;5.00;51.08;102317.23;1893237;75;21014;-51
2023/01/07 11:10:16;;;;;;;5.25;2.47;;;;;;;5.88;49.28;102316.12;1888578;75;21464;-48
2023/01/07 11:13:02;;;;;;;5.25;2.10;;;;;;;4.92;50.44;102324.97;1904302;75;21031;-46
2023/01/07 11:15:33;;;;;;;7.03;2.40;;;;;;;4.15;51.55;102330.64;1883756;75;21014;-46
2023/01/07 11:18:13;;;;;;;5.22;2.50;;;;;;;3.46;52.50;102330.50;1877937;75;21115;-47
2023/01/07 11:20:44;;;;;;;6.80;2.60;;;;;;;3.02;53.00;102332.36;1893053;75;21018;-47
2023/01/07 11:23:35;;;;;;;6.58;3.30;;;;;;;2.93;53.38;102330.90;1897932;75;21022;-49
2023/01/07 11:26:18;;;;;;;10.85;2.95;;;;;;;3.90;51.23;102323.34;1883570;75;21093;-47
2023/01/07 11:28:58;;;;;;;8.38;2.85;;;;;;;3.37;51.70;102322.54;1878785;75;21064;-48
2023/01/07 11:31:49;;;;;;;8.73;2.30;;;;;;;2.70;52.28;102325.72;1883802;75;21577;-48
2023/01/07 11:34:29;;;;;;;6.97;2.90;;;;;;;2.30;53.19;102319.73;1874994;74;20994;-47
2023/01/07 11:36:58;;;;;;;8.43;3.45;;;;;;;3.27;52.83;102321.52;1891425;75;21620;-48
2023/01/07 11:39:29;;;;;;;4.87;2.50;;;;;;;4.80;50.18;102324.87;1919995;75;21018;-48
2023/01/07 11:42:37;;;;;;;8.70;2.60;;;;;;;6.45;47.44;102320.34;1916450;75;21112;-51
2023/01/07 11:44:30;;;;;;;7.67;2.70;;;;;;;6.77;46.45;102323.52;1908725;75;21398;-49
2023/01/07 11:46:59;;;;;;;7.72;2.75;;;;;;;5.59;47.96;102323.81;1918169;75;21241;-48
2023/01/07 11:49:30;;;;;;;6.53;2.67;;;;;;;4.56;49.38;102323.74;1918369;75;21050;-48
2023/01/07 11:52:00;;;;;;;5.67;1.92;;;;;;;3.97;49.91;102317.36;1918271;75;21023;-48
2023/01/07 11:54:30;;;;;;;6.37;2.75;;;;;;;4.02;49.81;102319.58;1918374;75;21018;-47
2023/01/07 11:57:24;;;;;;;5.60;2.40;;;;;;;4.86;48.46;102327.97;1918238;75;21485;-50
2023/01/07 12:00:07;;;;;;;6.62;3.42;;;;;;;4.96;48.19;102330.69;1918122;74;21069;-52